Monroe, Nebraska
Current Conditions -  °F | °C
As of 4:35 PM on Wednesday 22 Oct 2014 (Local Time) from KOLU Reporting Station
Overcast Overcast  
Wind Chill: 63°   Ceiling: 6000
Heat Index: 63°   Visibility: 9mi
Dew Point: 57°   Wind: 15mph
Humidity: 82%   Direction: 270°W
Pressure: 30.01"   Gusts: 21mph
Location:  41.47°N, 97.6°W
Report Text: KOLU 222135Z AUTO 27013G18KT 9SM SCT010 OVC060 17/14 A3001 RMK AO1 P0006
Loading
Personal Weather Stations






























Interactive Weather Map
Tropical Storm Tracking
New forecast layout! Learn more

10-Day Weather Forecast

Advertisements
Track Severe Weather on mobile